sensor_id;sensor_type;location;lat;lon;timestamp;temperature;humidity
15357;DHT22;7778;48.792;9.260;2023-04-24T00:00:05;11.60;99.90
15357;DHT22;7778;48.792;9.260;2023-04-24T00:02:52;11.60;99.90
15357;DHT22;7778;48.792;9.260;2023-04-24T00:05:41;11.60;99.90
15357;DHT22;7778;48.792;9.260;2023-04-24T00:08:27;11.70;99.90
15357;DHT22;7778;48.792;9.260;2023-04-24T00:11:14;11.70;99.90
15357;DHT22;7778;48.792;9.260;2023-04-24T00:14:00;11.70;99.90
15357;DHT22;7778;48.792;9.260;2023-04-24T00:16:46;11.70;99.90
15357;DHT22;7778;48.792;9.260;2023-04-24T00:19:31;11.90;99.90
15357;DHT22;7778;48.792;9.260;2023-04-24T00:22:17;11.80;99.90
15357;DHT22;7778;48.792;9.260;2023-04-24T00:25:05;11.70;99.90
15357;DHT22;7778;48.792;9.260;2023-04-24T00:27:52;11.70;99.90
15357;DHT22;7778;48.792;9.260;2023-04-24T00:30:38;11.70;99.90
15357;DHT22;7778;48.792;9.260;2023-04-24T00:33:23;11.70;99.90
15357;DHT22;7778;48.792;9.260;2023-04-24T00:36:10;11.70;99.90
15357;DHT22;7778;48.792;9.260;2023-04-24T00:38:55;11.70;99.90
15357;DHT22;7778;48.792;9.260;2023-04-24T00:41:41;11.70;99.90
15357;DHT22;7778;48.792;9.260;2023-04-24T00:44:28;11.70;99.90
15357;DHT22;7778;48.792;9.260;2023-04-24T00:47:14;11.60;99.90
15357;DHT22;7778;48.792;9.260;2023-04-24T00:50:01;11.60;99.90
15357;DHT22;7778;48.792;9.260;2023-04-24T00:52:47;11.70;99.90
15357;DHT22;7778;48.792;9.260;2023-04-24T00:55:32;11.70;99.90
15357;DHT22;7778;48.792;9.260;2023-04-24T00:58:18;11.70;99.90
15357;DHT22;7778;48.792;9.260;2023-04-24T01:01:06;11.80;99.90
15357;DHT22;7778;48.792;9.260;2023-04-24T01:03:52;12.00;99.90
15357;DHT22;7778;48.792;9.260;2023-04-24T01:06:40;12.00;99.90
15357;DHT22;7778;48.792;9.260;2023-04-24T01:09:26;11.80;99.90
15357;DHT22;7778;48.792;9.260;2023-04-24T01:12:12;11.90;99.90
15357;DHT22;7778;48.792;9.260;2023-04-24T01:14:58;11.90;99.90
15357;DHT22;7778;48.792;9.260;2023-04-24T01:17:45;11.90;99.90
15357;DHT22;7778;48.792;9.260;2023-04-24T01:20:31;11.80;99.90
15357;DHT22;7778;48.792;9.260;2023-04-24T01:23:18;11.80;99.90
15357;DHT22;7778;48.792;9.260;2023-04-24T01:26:04;11.80;99.90
15357;DHT22;7778;48.792;9.260;2023-04-24T01:28:50;11.80;99.90
15357;DHT22;7778;48.792;9.260;2023-04-24T01:31:36;11.80;99.90
15357;DHT22;7778;48.792;9.260;2023-04-24T01:34:22;11.80;99.90
15357;DHT22;7778;48.792;9.260;2023-04-24T01:37:07;11.80;99.90
15357;DHT22;7778;48.792;9.260;2023-04-24T01:39:54;11.90;99.90
15357;DHT22;7778;48.792;9.260;2023-04-24T01:42:41;11.90;99.90
15357;DHT22;7778;48.792;9.260;2023-04-24T01:45:27;11.90;99.90
15357;DHT22;7778;48.792;9.260;2023-04-24T01:48:12;11.80;99.90
15357;DHT22;7778;48.792;9.260;2023-04-24T01:50:59;11.70;99.90
15357;DHT22;7778;48.792;9.260;2023-04-24T01:53:45;11.70;99.90
15357;DHT22;7778;48.792;9.260;2023-04-24T01:56:33;11.90;99.90
15357;DHT22;7778;48.792;9.260;2023-04-24T01:59:20;11.60;99.90
15357;DHT22;7778;48.792;9.260;2023-04-24T02:02:06;11.70;99.90
15357;DHT22;7778;48.792;9.260;2023-04-24T02:04:52;11.70;99.90
15357;DHT22;7778;48.792;9.260;2023-04-24T02:07:37;11.70;99.90
15357;DHT22;7778;48.792;9.260;2023-04-24T02:10:23;11.70;99.90
15357;DHT22;7778;48.792;9.260;2023-04-24T02:13:11;11.80;99.90
15357;DHT22;7778;48.792;9.260;2023-04-24T02:15:58;11.70;99.90
15357;DHT22;7778;48.792;9.260;2023-04-24T02:18:44;11.70;99.90
15357;DHT22;7778;48.792;9.260;2023-04-24T02:21:30;11.70;99.90
15357;DHT22;7778;48.792;9.260;2023-04-24T02:24:15;11.60;99.90
15357;DHT22;7778;48.792;9.260;2023-04-24T02:27:01;11.50;99.90
15357;DHT22;7778;48.792;9.260;2023-04-24T02:29:48;11.40;99.90
15357;DHT22;7778;48.792;9.260;2023-04-24T02:32:33;11.40;99.90
15357;DHT22;7778;48.792;9.260;2023-04-24T02:35:19;11.40;99.90
15357;DHT22;7778;48.792;9.260;2023-04-24T02:38:05;11.40;99.90
15357;DHT22;7778;48.792;9.260;2023-04-24T02:40:50;11.40;99.90
15357;DHT22;7778;48.792;9.260;2023-04-24T02:43:36;11.40;99.90
15357;DHT22;7778;48.792;9.260;2023-04-24T02:46:23;11.50;99.90
15357;DHT22;7778;48.792;9.260;2023-04-24T02:49:08;11.60;99.90
15357;DHT22;7778;48.792;9.260;2023-04-24T02:51:55;11.60;99.90
15357;DHT22;7778;48.792;9.260;2023-04-24T02:54:41;11.60;99.90
15357;DHT22;7778;48.792;9.260;2023-04-24T02:57:26;11.60;99.90
15357;DHT22;7778;48.792;9.260;2023-04-24T03:00:12;11.60;99.90
15357;DHT22;7778;48.792;9.260;2023-04-24T03:03:00;11.50;99.90
15357;DHT22;7778;48.792;9.260;2023-04-24T03:05:45;11.60;99.90
15357;DHT22;7778;48.792;9.260;2023-04-24T03:08:31;11.50;99.90
15357;DHT22;7778;48.792;9.260;2023-04-24T03:11:17;11.40;99.90
15357;DHT22;7778;48.792;9.260;2023-04-24T03:14:02;11.30;99.90
15357;DHT22;7778;48.792;9.260;2023-04-24T03:16:48;11.40;99.90
15357;DHT22;7778;48.792;9.260;2023-04-24T03:19:35;11.30;99.90
15357;DHT22;7778;48.792;9.260;2023-04-24T03:22:21;11.30;99.90
15357;DHT22;7778;48.792;9.260;2023-04-24T03:25:07;11.30;99.90
15357;DHT22;7778;48.792;9.260;2023-04-24T03:27:53;11.20;99.90
15357;DHT22;7778;48.792;9.260;2023-04-24T03:30:39;11.20;99.90
15357;DHT22;7778;48.792;9.260;2023-04-24T03:33:25;11.10;99.90
15357;DHT22;7778;48.792;9.260;2023-04-24T03:36:12;11.00;99.90
15357;DHT22;7778;48.792;9.260;2023-04-24T03:38:57;11.00;99.90
15357;DHT22;7778;48.792;9.260;2023-04-24T03:41:43;11.00;99.90
15357;DHT22;7778;48.792;9.260;2023-04-24T03:44:29;10.90;99.90
15357;DHT22;7778;48.792;9.260;2023-04-24T03:47:14;10.90;99.90
15357;DHT22;7778;48.792;9.260;2023-04-24T03:50:00;10.90;99.90
15357;DHT22;7778;48.792;9.260;2023-04-24T03:52:47;11.00;99.90
15357;DHT22;7778;48.792;9.260;2023-04-24T03:55:33;11.00;99.90
15357;DHT22;7778;48.792;9.260;2023-04-24T03:58:19;11.00;99.90
15357;DHT22;7778;48.792;9.260;2023-04-24T04:01:04;10.90;99.90
15357;DHT22;7778;48.792;9.260;2023-04-24T04:03:50;10.80;99.90
15357;DHT22;7778;48.792;9.260;2023-04-24T04:06:36;10.80;99.90
15357;DHT22;7778;48.792;9.260;2023-04-24T04:09:24;10.70;99.90
15357;DHT22;7778;48.792;9.260;2023-04-24T04:12:09;10.70;99.90
15357;DHT22;7778;48.792;9.260;2023-04-24T04:14:55;10.70;99.90
15357;DHT22;7778;48.792;9.260;2023-04-24T04:17:40;10.70;99.90
15357;DHT22;7778;48.792;9.260;2023-04-24T04:20:26;10.80;99.90
15357;DHT22;7778;48.792;9.260;2023-04-24T04:23:12;10.90;99.90
15357;DHT22;7778;48.792;9.260;2023-04-24T04:25:58;10.90;99.90
15357;DHT22;7778;48.792;9.260;2023-04-24T04:28:45;11.00;99.90
15357;DHT22;7778;48.792;9.260;2023-04-24T04:31:31;11.00;99.90
15357;DHT22;7778;48.792;9.260;2023-04-24T04:34:17;11.00;99.90
15357;DHT22;7778;48.792;9.260;2023-04-24T04:37:03;11.00;99.90
15357;DHT22;7778;48.792;9.260;2023-04-24T04:39:49;10.90;99.90
15357;DHT22;7778;48.792;9.260;2023-04-24T04:42:37;10.80;99.90
15357;DHT22;7778;48.792;9.260;2023-04-24T04:45:24;10.70;99.90
15357;DHT22;7778;48.792;9.260;2023-04-24T04:48:10;10.60;99.90
15357;DHT22;7778;48.792;9.260;2023-04-24T04:50:58;10.60;99.90
15357;DHT22;7778;48.792;9.260;2023-04-24T04:53:43;10.60;99.90
15357;DHT22;7778;48.792;9.260;2023-04-24T04:56:29;10.50;99.90
15357;DHT22;7778;48.792;9.260;2023-04-24T04:59:15;10.40;99.90
15357;DHT22;7778;48.792;9.260;2023-04-24T05:02:01;10.40;99.90
15357;DHT22;7778;48.792;9.260;2023-04-24T05:04:47;10.40;99.90
15357;DHT22;7778;48.792;9.260;2023-04-24T05:07:32;10.40;99.90
15357;DHT22;7778;48.792;9.260;2023-04-24T05:10:18;10.40;99.90
15357;DHT22;7778;48.792;9.260;2023-04-24T05:13:03;10.50;99.90
15357;DHT22;7778;48.792;9.260;2023-04-24T05:15:50;10.50;99.90
15357;DHT22;7778;48.792;9.260;2023-04-24T05:18:36;10.60;99.90
15357;DHT22;7778;48.792;9.260;2023-04-24T05:21:22;10.60;99.90
15357;DHT22;7778;48.792;9.260;2023-04-24T05:24:08;10.50;99.90
15357;DHT22;7778;48.792;9.260;2023-04-24T05:26:53;10.40;99.90
15357;DHT22;7778;48.792;9.260;2023-04-24T05:29:39;10.40;99.90
15357;DHT22;7778;48.792;9.260;2023-04-24T05:32:27;10.40;99.90
15357;DHT22;7778;48.792;9.260;2023-04-24T05:35:12;10.50;99.90
15357;DHT22;7778;48.792;9.260;2023-04-24T05:37:58;10.40;99.90
15357;DHT22;7778;48.792;9.260;2023-04-24T05:40:43;10.50;99.90
15357;DHT22;7778;48.792;9.260;2023-04-24T05:43:29;10.50;99.90
15357;DHT22;7778;48.792;9.260;2023-04-24T05:46:14;10.50;99.90
15357;DHT22;7778;48.792;9.260;2023-04-24T05:49:01;10.70;99.90
15357;DHT22;7778;48.792;9.260;2023-04-24T05:51:47;10.60;99.90
15357;DHT22;7778;48.792;9.260;2023-04-24T05:54:32;10.50;99.90
15357;DHT22;7778;48.792;9.260;2023-04-24T05:57:18;10.60;99.90
15357;DHT22;7778;48.792;9.260;2023-04-24T06:00:06;10.80;99.90
15357;DHT22;7778;48.792;9.260;2023-04-24T06:02:53;10.80;99.90
15357;DHT22;7778;48.792;9.260;2023-04-24T06:05:41;10.90;99.90
15357;DHT22;7778;48.792;9.260;2023-04-24T06:08:26;10.90;99.90
15357;DHT22;7778;48.792;9.260;2023-04-24T06:11:12;10.90;99.90
15357;DHT22;7778;48.792;9.260;2023-04-24T06:13:57;10.90;99.90
15357;DHT22;7778;48.792;9.260;2023-04-24T06:16:42;10.90;99.90
15357;DHT22;7778;48.792;9.260;2023-04-24T06:19:28;10.90;99.90
15357;DHT22;7778;48.792;9.260;2023-04-24T06:22:15;11.10;99.90
15357;DHT22;7778;48.792;9.260;2023-04-24T06:25:01;11.90;99.90
15357;DHT22;7778;48.792;9.260;2023-04-24T06:27:46;13.00;99.90
15357;DHT22;7778;48.792;9.260;2023-04-24T06:30:32;14.50;99.90
15357;DHT22;7778;48.792;9.260;2023-04-24T06:33:17;16.00;99.90
15357;DHT22;7778;48.792;9.260;2023-04-24T06:36:03;17.00;99.90
15357;DHT22;7778;48.792;9.260;2023-04-24T06:38:51;19.00;99.90
15357;DHT22;7778;48.792;9.260;2023-04-24T06:41:36;20.30;99.90
15357;DHT22;7778;48.792;9.260;2023-04-24T06:44:23;20.80;99.90
15357;DHT22;7778;48.792;9.260;2023-04-24T06:47:10;20.60;99.90
15357;DHT22;7778;48.792;9.260;2023-04-24T06:49:57;21.40;99.90
15357;DHT22;7778;48.792;9.260;2023-04-24T06:52:44;21.30;99.90
15357;DHT22;7778;48.792;9.260;2023-04-24T06:55:31;20.20;99.90
15357;DHT22;7778;48.792;9.260;2023-04-24T06:58:17;19.90;99.90
15357;DHT22;7778;48.792;9.260;2023-04-24T07:01:03;19.80;99.90
15357;DHT22;7778;48.792;9.260;2023-04-24T07:03:49;19.80;99.90
15357;DHT22;7778;48.792;9.260;2023-04-24T07:06:35;19.30;99.90
15357;DHT22;7778;48.792;9.260;2023-04-24T07:09:22;17.90;99.90
15357;DHT22;7778;48.792;9.260;2023-04-24T07:12:11;17.60;99.90
15357;DHT22;7778;48.792;9.260;2023-04-24T07:14:57;18.40;99.90
15357;DHT22;7778;48.792;9.260;2023-04-24T07:17:43;18.30;99.90
15357;DHT22;7778;48.792;9.260;2023-04-24T07:20:28;17.70;99.90
15357;DHT22;7778;48.792;9.260;2023-04-24T07:23:14;16.20;99.90
15357;DHT22;7778;48.792;9.260;2023-04-24T07:25:59;15.00;99.90
15357;DHT22;7778;48.792;9.260;2023-04-24T07:28:46;14.10;99.90
15357;DHT22;7778;48.792;9.260;2023-04-24T07:31:32;13.50;99.90
15357;DHT22;7778;48.792;9.260;2023-04-24T07:34:18;13.20;99.90
15357;DHT22;7778;48.792;9.260;2023-04-24T07:37:03;13.20;99.90
15357;DHT22;7778;48.792;9.260;2023-04-24T07:39:49;12.90;99.90
15357;DHT22;7778;48.792;9.260;2023-04-24T07:42:35;12.80;99.90
15357;DHT22;7778;48.792;9.260;2023-04-24T07:45:22;13.00;99.90
15357;DHT22;7778;48.792;9.260;2023-04-24T07:48:10;13.90;99.90
15357;DHT22;7778;48.792;9.260;2023-04-24T07:50:55;14.40;99.90
15357;DHT22;7778;48.792;9.260;2023-04-24T07:53:41;15.10;99.90
15357;DHT22;7778;48.792;9.260;2023-04-24T07:56:27;15.20;99.90
15357;DHT22;7778;48.792;9.260;2023-04-24T07:59:15;14.60;99.90
15357;DHT22;7778;48.792;9.260;2023-04-24T08:02:02;14.10;99.90
15357;DHT22;7778;48.792;9.260;2023-04-24T08:04:47;13.70;99.90
15357;DHT22;7778;48.792;9.260;2023-04-24T08:07:33;13.40;99.90
15357;DHT22;7778;48.792;9.260;2023-04-24T08:10:20;13.40;99.90
15357;DHT22;7778;48.792;9.260;2023-04-24T08:13:06;13.30;99.90
15357;DHT22;7778;48.792;9.260;2023-04-24T08:15:52;13.10;99.90
15357;DHT22;7778;48.792;9.260;2023-04-24T08:18:39;12.90;99.90
15357;DHT22;7778;48.792;9.260;2023-04-24T08:21:24;12.90;99.90
15357;DHT22;7778;48.792;9.260;2023-04-24T08:24:11;12.80;99.90
15357;DHT22;7778;48.792;9.260;2023-04-24T08:26:56;12.70;99.90
15357;DHT22;7778;48.792;9.260;2023-04-24T08:29:42;12.80;99.90
15357;DHT22;7778;48.792;9.260;2023-04-24T08:32:28;13.20;99.90
15357;DHT22;7778;48.792;9.260;2023-04-24T08:35:15;13.00;99.90
15357;DHT22;7778;48.792;9.260;2023-04-24T08:38:01;13.60;99.90
15357;DHT22;7778;48.792;9.260;2023-04-24T08:40:47;14.00;99.90
15357;DHT22;7778;48.792;9.260;2023-04-24T08:43:34;14.40;99.90
15357;DHT22;7778;48.792;9.260;2023-04-24T08:46:22;15.30;99.90
15357;DHT22;7778;48.792;9.260;2023-04-24T08:49:08;15.00;99.90
15357;DHT22;7778;48.792;9.260;2023-04-24T08:51:55;14.20;99.90
15357;DHT22;7778;48.792;9.260;2023-04-24T08:54:41;13.60;99.90
15357;DHT22;7778;48.792;9.260;2023-04-24T08:57:27;13.00;99.90
15357;DHT22;7778;48.792;9.260;2023-04-24T09:00:14;12.90;99.90
15357;DHT22;7778;48.792;9.260;2023-04-24T09:03:02;12.70;99.90
15357;DHT22;7778;48.792;9.260;2023-04-24T09:05:50;12.60;99.90
15357;DHT22;7778;48.792;9.260;2023-04-24T09:08:39;12.60;99.90
15357;DHT22;7778;48.792;9.260;2023-04-24T09:11:26;13.00;99.90
15357;DHT22;7778;48.792;9.260;2023-04-24T09:14:13;13.70;99.90
15357;DHT22;7778;48.792;9.260;2023-04-24T09:16:59;14.20;99.90
15357;DHT22;7778;48.792;9.260;2023-04-24T09:19:45;13.70;99.90
15357;DHT22;7778;48.792;9.260;2023-04-24T09:22:31;13.20;99.90
15357;DHT22;7778;48.792;9.260;2023-04-24T09:25:18;12.80;99.90
15357;DHT22;7778;48.792;9.260;2023-04-24T09:28:05;12.30;99.90
15357;DHT22;7778;48.792;9.260;2023-04-24T09:31:05;12.30;99.90
15357;DHT22;7778;48.792;9.260;2023-04-24T09:33:54;12.50;99.90
15357;DHT22;7778;48.792;9.260;2023-04-24T09:36:42;12.20;99.90
15357;DHT22;7778;48.792;9.260;2023-04-24T09:39:28;12.20;99.90
15357;DHT22;7778;48.792;9.260;2023-04-24T09:42:15;12.10;99.90
15357;DHT22;7778;48.792;9.260;2023-04-24T09:45:00;11.80;99.90
15357;DHT22;7778;48.792;9.260;2023-04-24T09:47:51;11.40;99.90
15357;DHT22;7778;48.792;9.260;2023-04-24T09:50:37;11.80;99.90
15357;DHT22;7778;48.792;9.260;2023-04-24T09:53:24;12.40;99.90
15357;DHT22;7778;48.792;9.260;2023-04-24T09:56:10;13.30;99.90
15357;DHT22;7778;48.792;9.260;2023-04-24T09:59:04;14.30;99.90
15357;DHT22;7778;48.792;9.260;2023-04-24T10:01:51;14.60;99.90
15357;DHT22;7778;48.792;9.260;2023-04-24T10:04:36;14.10;99.90
15357;DHT22;7778;48.792;9.260;2023-04-24T10:07:23;13.70;99.90
15357;DHT22;7778;48.792;9.260;2023-04-24T10:10:11;13.20;99.90
15357;DHT22;7778;48.792;9.260;2023-04-24T10:12:57;13.20;99.90
15357;DHT22;7778;48.792;9.260;2023-04-24T10:15:44;13.60;99.90
15357;DHT22;7778;48.792;9.260;2023-04-24T10:18:31;13.80;99.90
15357;DHT22;7778;48.792;9.260;2023-04-24T10:21:17;13.90;99.90
15357;DHT22;7778;48.792;9.260;2023-04-24T10:24:04;13.80;99.90
15357;DHT22;7778;48.792;9.260;2023-04-24T10:26:52;14.00;99.90
15357;DHT22;7778;48.792;9.260;2023-04-24T10:29:39;15.00;99.90
15357;DHT22;7778;48.792;9.260;2023-04-24T10:32:26;16.00;99.90
15357;DHT22;7778;48.792;9.260;2023-04-24T10:35:13;16.00;99.90
15357;DHT22;7778;48.792;9.260;2023-04-24T10:38:05;16.40;99.90
15357;DHT22;7778;48.792;9.260;2023-04-24T10:40:57;15.80;99.90
15357;DHT22;7778;48.792;9.260;2023-04-24T10:44:04;14.90;99.90
15357;DHT22;7778;48.792;9.260;2023-04-24T10:46:53;14.50;99.90
15357;DHT22;7778;48.792;9.260;2023-04-24T10:49:41;14.30;99.90
15357;DHT22;7778;48.792;9.260;2023-04-24T10:52:45;13.90;99.90
15357;DHT22;7778;48.792;9.260;2023-04-24T10:55:43;13.70;99.90
15357;DHT22;7778;48.792;9.260;2023-04-24T10:58:38;13.40;99.90
15357;DHT22;7778;48.792;9.260;2023-04-24T11:01:30;13.30;99.90
15357;DHT22;7778;48.792;9.260;2023-04-24T11:04:29;13.20;99.90
15357;DHT22;7778;48.792;9.260;2023-04-24T11:07:17;13.20;99.90
15357;DHT22;7778;48.792;9.260;2023-04-24T11:10:06;13.10;99.90
15357;DHT22;7778;48.792;9.260;2023-04-24T11:12:52;13.20;99.90
15357;DHT22;7778;48.792;9.260;2023-04-24T11:15:41;13.30;99.90
15357;DHT22;7778;48.792;9.260;2023-04-24T11:18:37;13.20;99.90
15357;DHT22;7778;48.792;9.260;2023-04-24T11:21:23;13.00;99.90
15357;DHT22;7778;48.792;9.260;2023-04-24T11:24:29;12.80;99.90
15357;DHT22;7778;48.792;9.260;2023-04-24T11:27:18;12.70;99.90
15357;DHT22;7778;48.792;9.260;2023-04-24T11:30:05;12.80;99.90
15357;DHT22;7778;48.792;9.260;2023-04-24T11:32:52;13.30;99.90
15357;DHT22;7778;48.792;9.260;2023-04-24T11:35:40;13.90;99.90
15357;DHT22;7778;48.792;9.260;2023-04-24T11:38:25;14.00;99.90
15357;DHT22;7778;48.792;9.260;2023-04-24T11:41:13;13.90;99.90
15357;DHT22;7778;48.792;9.260;2023-04-24T11:43:59;14.20;99.90
15357;DHT22;7778;48.792;9.260;2023-04-24T11:46:45;14.00;99.90
15357;DHT22;7778;48.792;9.260;2023-04-24T11:49:30;14.10;99.90
15357;DHT22;7778;48.792;9.260;2023-04-24T11:52:16;14.20;99.90
15357;DHT22;7778;48.792;9.260;2023-04-24T11:55:02;14.00;99.90
15357;DHT22;7778;48.792;9.260;2023-04-24T11:57:51;13.50;99.90
15357;DHT22;7778;48.792;9.260;2023-04-24T12:00:40;13.20;99.90
15357;DHT22;7778;48.792;9.260;2023-04-24T12:03:25;12.70;99.90
15357;DHT22;7778;48.792;9.260;2023-04-24T12:06:11;12.40;99.90
15357;DHT22;7778;48.792;9.260;2023-04-24T12:08:59;12.40;99.90
15357;DHT22;7778;48.792;9.260;2023-04-24T12:11:52;12.80;99.90
15357;DHT22;7778;48.792;9.260;2023-04-24T12:14:47;13.50;99.90
15357;DHT22;7778;48.792;9.260;2023-04-24T12:17:35;14.20;99.90
15357;DHT22;7778;48.792;9.260;2023-04-24T12:20:24;14.30;99.90
15357;DHT22;7778;48.792;9.260;2023-04-24T12:23:11;14.60;99.90
15357;DHT22;7778;48.792;9.260;2023-04-24T12:26:00;14.70;99.90
15357;DHT22;7778;48.792;9.260;2023-04-24T12:28:47;14.30;99.90
15357;DHT22;7778;48.792;9.260;2023-04-24T12:31:35;13.70;99.90
15357;DHT22;7778;48.792;9.260;2023-04-24T12:34:22;13.40;99.90
15357;DHT22;7778;48.792;9.260;2023-04-24T12:37:10;13.50;99.90
15357;DHT22;7778;48.792;9.260;2023-04-24T12:40:00;13.50;99.90
15357;DHT22;7778;48.792;9.260;2023-04-24T12:42:48;13.20;99.90
15357;DHT22;7778;48.792;9.260;2023-04-24T12:45:34;13.10;99.90
15357;DHT22;7778;48.792;9.260;2023-04-24T12:48:21;13.10;99.90
15357;DHT22;7778;48.792;9.260;2023-04-24T12:51:07;12.90;99.90
15357;DHT22;7778;48.792;9.260;2023-04-24T12:53:52;13.00;99.90
15357;DHT22;7778;48.792;9.260;2023-04-24T12:56:38;13.40;99.90
15357;DHT22;7778;48.792;9.260;2023-04-24T12:59:23;13.70;99.90
15357;DHT22;7778;48.792;9.260;2023-04-24T13:02:09;13.90;99.90
15357;DHT22;7778;48.792;9.260;2023-04-24T13:04:57;13.80;99.90
15357;DHT22;7778;48.792;9.260;2023-04-24T13:07:43;13.50;99.90
15357;DHT22;7778;48.792;9.260;2023-04-24T13:10:28;13.20;99.90
15357;DHT22;7778;48.792;9.260;2023-04-24T13:13:14;13.10;99.90
15357;DHT22;7778;48.792;9.260;2023-04-24T13:16:00;12.70;99.90
15357;DHT22;7778;48.792;9.260;2023-04-24T13:18:45;12.30;99.90
15357;DHT22;7778;48.792;9.260;2023-04-24T13:21:32;12.00;99.90
15357;DHT22;7778;48.792;9.260;2023-04-24T13:24:18;12.20;99.90
15357;DHT22;7778;48.792;9.260;2023-04-24T13:27:04;12.90;99.90
15357;DHT22;7778;48.792;9.260;2023-04-24T13:29:50;13.50;99.90
15357;DHT22;7778;48.792;9.260;2023-04-24T13:32:36;14.30;99.90
15357;DHT22;7778;48.792;9.260;2023-04-24T13:35:21;14.60;99.90
15357;DHT22;7778;48.792;9.260;2023-04-24T13:38:08;14.20;99.90
15357;DHT22;7778;48.792;9.260;2023-04-24T13:40:55;13.90;99.90
15357;DHT22;7778;48.792;9.260;2023-04-24T13:43:41;13.80;99.90
15357;DHT22;7778;48.792;9.260;2023-04-24T13:46:27;13.90;99.90
15357;DHT22;7778;48.792;9.260;2023-04-24T13:49:13;13.90;99.90
15357;DHT22;7778;48.792;9.260;2023-04-24T13:51:59;14.10;99.90
15357;DHT22;7778;48.792;9.260;2023-04-24T13:54:46;14.10;99.90
15357;DHT22;7778;48.792;9.260;2023-04-24T13:57:32;14.00;99.90
15357;DHT22;7778;48.792;9.260;2023-04-24T14:00:18;13.70;99.90
15357;DHT22;7778;48.792;9.260;2023-04-24T14:03:04;13.10;99.90
15357;DHT22;7778;48.792;9.260;2023-04-24T14:05:50;12.00;99.90
15357;DHT22;7778;48.792;9.260;2023-04-24T14:08:36;11.50;99.90
15357;DHT22;7778;48.792;9.260;2023-04-24T14:11:23;11.20;99.90
15357;DHT22;7778;48.792;9.260;2023-04-24T14:14:08;11.60;99.90
15357;DHT22;7778;48.792;9.260;2023-04-24T14:16:54;11.90;99.90
15357;DHT22;7778;48.792;9.260;2023-04-24T14:19:40;12.30;99.90
15357;DHT22;7778;48.792;9.260;2023-04-24T14:22:26;12.40;99.90
15357;DHT22;7778;48.792;9.260;2023-04-24T14:25:11;12.30;99.90
15357;DHT22;7778;48.792;9.260;2023-04-24T14:27:58;12.30;99.90
15357;DHT22;7778;48.792;9.260;2023-04-24T14:30:44;12.40;99.90
15357;DHT22;7778;48.792;9.260;2023-04-24T14:33:30;12.40;99.90
15357;DHT22;7778;48.792;9.260;2023-04-24T14:36:15;12.50;99.90
15357;DHT22;7778;48.792;9.260;2023-04-24T14:39:01;12.60;99.90
15357;DHT22;7778;48.792;9.260;2023-04-24T14:41:50;12.60;99.90
15357;DHT22;7778;48.792;9.260;2023-04-24T14:44:37;12.50;99.90
15357;DHT22;7778;48.792;9.260;2023-04-24T14:47:22;12.60;99.90
15357;DHT22;7778;48.792;9.260;2023-04-24T14:50:08;12.50;99.90
15357;DHT22;7778;48.792;9.260;2023-04-24T14:52:55;12.30;99.90
15357;DHT22;7778;48.792;9.260;2023-04-24T14:55:41;12.20;99.90
15357;DHT22;7778;48.792;9.260;2023-04-24T14:58:27;12.20;99.90
15357;DHT22;7778;48.792;9.260;2023-04-24T15:01:14;12.30;99.90
15357;DHT22;7778;48.792;9.260;2023-04-24T15:04:00;12.40;99.90
15357;DHT22;7778;48.792;9.260;2023-04-24T15:06:45;12.70;99.90
15357;DHT22;7778;48.792;9.260;2023-04-24T15:09:31;13.00;99.90
15357;DHT22;7778;48.792;9.260;2023-04-24T15:12:17;13.30;99.90
15357;DHT22;7778;48.792;9.260;2023-04-24T15:15:03;13.40;99.90
15357;DHT22;7778;48.792;9.260;2023-04-24T15:17:51;13.40;99.90
15357;DHT22;7778;48.792;9.260;2023-04-24T15:20:36;12.90;99.90
15357;DHT22;7778;48.792;9.260;2023-04-24T15:23:23;12.50;99.90
15357;DHT22;7778;48.792;9.260;2023-04-24T15:26:08;12.50;99.90
15357;DHT22;7778;48.792;9.260;2023-04-24T15:28:54;12.50;99.90
15357;DHT22;7778;48.792;9.260;2023-04-24T15:31:39;12.60;99.90
15357;DHT22;7778;48.792;9.260;2023-04-24T15:34:27;12.40;99.90
15357;DHT22;7778;48.792;9.260;2023-04-24T15:37:13;12.40;99.90
15357;DHT22;7778;48.792;9.260;2023-04-24T15:39:58;12.40;99.90
15357;DHT22;7778;48.792;9.260;2023-04-24T15:42:45;12.40;99.90
15357;DHT22;7778;48.792;9.260;2023-04-24T15:45:30;12.30;99.90
15357;DHT22;7778;48.792;9.260;2023-04-24T15:48:16;12.00;99.90
15357;DHT22;7778;48.792;9.260;2023-04-24T15:51:03;11.80;99.90
15357;DHT22;7778;48.792;9.260;2023-04-24T15:53:49;11.60;99.90
15357;DHT22;7778;48.792;9.260;2023-04-24T15:56:34;11.70;99.90
15357;DHT22;7778;48.792;9.260;2023-04-24T15:59:20;11.80;99.90
15357;DHT22;7778;48.792;9.260;2023-04-24T16:02:08;12.00;99.90
15357;DHT22;7778;48.792;9.260;2023-04-24T16:04:55;12.30;99.90
15357;DHT22;7778;48.792;9.260;2023-04-24T16:07:41;12.30;99.90
15357;DHT22;7778;48.792;9.260;2023-04-24T16:10:27;12.20;99.90
15357;DHT22;7778;48.792;9.260;2023-04-24T16:13:14;12.20;99.90
15357;DHT22;7778;48.792;9.260;2023-04-24T16:16:02;12.20;99.90
15357;DHT22;7778;48.792;9.260;2023-04-24T16:18:47;12.20;99.90
15357;DHT22;7778;48.792;9.260;2023-04-24T16:21:33;12.20;99.90
15357;DHT22;7778;48.792;9.260;2023-04-24T16:24:21;12.20;99.90
15357;DHT22;7778;48.792;9.260;2023-04-24T16:27:07;12.20;99.90
15357;DHT22;7778;48.792;9.260;2023-04-24T16:29:52;12.10;99.90
15357;DHT22;7778;48.792;9.260;2023-04-24T16:32:38;12.00;99.90
15357;DHT22;7778;48.792;9.260;2023-04-24T16:35:23;12.00;99.90
15357;DHT22;7778;48.792;9.260;2023-04-24T16:38:09;11.90;99.90
15357;DHT22;7778;48.792;9.260;2023-04-24T16:40:56;11.90;99.90
15357;DHT22;7778;48.792;9.260;2023-04-24T16:43:42;11.90;99.90
15357;DHT22;7778;48.792;9.260;2023-04-24T16:46:27;11.90;99.90
15357;DHT22;7778;48.792;9.260;2023-04-24T16:49:13;12.20;99.90
15357;DHT22;7778;48.792;9.260;2023-04-24T16:51:59;12.30;99.90
15357;DHT22;7778;48.792;9.260;2023-04-24T16:54:45;12.40;99.90
15357;DHT22;7778;48.792;9.260;2023-04-24T16:57:32;12.80;99.90
15357;DHT22;7778;48.792;9.260;2023-04-24T17:00:18;13.20;99.90
15357;DHT22;7778;48.792;9.260;2023-04-24T17:03:03;13.60;99.90
15357;DHT22;7778;48.792;9.260;2023-04-24T17:05:49;13.90;99.90
15357;DHT22;7778;48.792;9.260;2023-04-24T17:08:35;13.70;99.90
15357;DHT22;7778;48.792;9.260;2023-04-24T17:11:21;13.20;99.90
15357;DHT22;7778;48.792;9.260;2023-04-24T17:14:08;13.00;99.90
15357;DHT22;7778;48.792;9.260;2023-04-24T17:16:54;13.00;99.90
15357;DHT22;7778;48.792;9.260;2023-04-24T17:19:39;12.90;99.90
15357;DHT22;7778;48.792;9.260;2023-04-24T17:22:25;12.50;99.90
15357;DHT22;7778;48.792;9.260;2023-04-24T17:25:13;12.60;99.90
15357;DHT22;7778;48.792;9.260;2023-04-24T17:27:59;12.70;99.90
15357;DHT22;7778;48.792;9.260;2023-04-24T17:30:46;12.60;99.90
15357;DHT22;7778;48.792;9.260;2023-04-24T17:33:32;12.60;99.90
15357;DHT22;7778;48.792;9.260;2023-04-24T17:36:18;12.20;99.90
15357;DHT22;7778;48.792;9.260;2023-04-24T17:39:03;12.30;99.90
15357;DHT22;7778;48.792;9.260;2023-04-24T17:41:52;12.20;99.90
15357;DHT22;7778;48.792;9.260;2023-04-24T17:44:38;12.30;99.90
15357;DHT22;7778;48.792;9.260;2023-04-24T17:47:25;12.20;99.90